createdAt,value
2022-10-29T00:01:56.000Z,102319.56
2022-10-29T00:05:01.217Z,102324.38
2022-10-29T00:08:06.679Z,102322.53
2022-10-29T00:11:15.985Z,102320.72
2022-10-29T00:14:21.408Z,102321.19
2022-10-29T00:17:26.776Z,102330.25
2022-10-29T00:20:32.105Z,102329.56
2022-10-29T00:23:37.832Z,102331.25
2022-10-29T00:26:42.726Z,102329.75
2022-10-29T00:29:48.099Z,102329.66
2022-10-29T00:32:53.799Z,102334.16
2022-10-29T00:36:15.493Z,102333.03
2022-10-29T00:39:21.095Z,102323.31
2022-10-29T00:42:26.502Z,102326.19
2022-10-29T00:45:32.572Z,102326.19
2022-10-29T00:48:45.715Z,102319.03
2022-10-29T00:51:52.758Z,102315.53
2022-10-29T00:55:02.900Z,102305.03
2022-10-29T00:58:12.235Z,102296.19
2022-10-29T01:01:18.139Z,102297.25
2022-10-29T01:04:25.974Z,102298.91
2022-10-29T01:07:31.904Z,102304.72
2022-10-29T01:11:04.357Z,102296.25
2022-10-29T01:14:12.519Z,102298.56
2022-10-29T01:17:32.943Z,102304.47
2022-10-29T01:20:58.814Z,102302.81
2022-10-29T01:24:22.133Z,102302.66
2022-10-29T01:27:36.476Z,102295.00
2022-10-29T01:31:20.029Z,102299.69
2022-10-29T01:34:53.338Z,102302.47
2022-10-29T01:38:27.622Z,102307.81
2022-10-29T01:41:56.886Z,102291.97
2022-10-29T01:45:22.760Z,102278.78
2022-10-29T01:48:34.650Z,102290.94
2022-10-29T01:51:43.474Z,102288.91
2022-10-29T01:54:49.847Z,102285.59
2022-10-29T01:57:55.614Z,102290.34
2022-10-29T02:01:12.852Z,102284.59
2022-10-29T02:04:25.115Z,102277.38
2022-10-29T02:07:54.848Z,102274.84
2022-10-29T02:11:08.953Z,102268.28
2022-10-29T02:14:33.663Z,102265.19
2022-10-29T02:17:39.495Z,102256.38
2022-10-29T02:20:46.816Z,102255.13
2022-10-29T02:23:52.763Z,102243.78
2022-10-29T02:26:58.419Z,102255.34
2022-10-29T02:30:05.643Z,102252.22
2022-10-29T02:33:11.048Z,102251.59
2022-10-29T02:36:16.674Z,102250.84
2022-10-29T02:39:22.200Z,102241.75
2022-10-29T02:42:27.659Z,102250.78
2022-10-29T02:45:33.201Z,102241.16
2022-10-29T02:48:38.785Z,102239.53
2022-10-29T02:51:43.945Z,102241.16
2022-10-29T02:54:49.355Z,102241.13
2022-10-29T02:57:55.004Z,102233.13
2022-10-29T03:01:01.745Z,102228.41
2022-10-29T03:04:07.122Z,102228.38
2022-10-29T03:07:12.496Z,102231.47
2022-10-29T03:10:18.148Z,102228.56
2022-10-29T03:13:23.243Z,102221.38
2022-10-29T03:16:28.475Z,102231.25
2022-10-29T03:19:33.720Z,102225.91
2022-10-29T03:22:39.409Z,102223.88
2022-10-29T03:25:55.619Z,102225.09
2022-10-29T03:29:01.631Z,102227.78
2022-10-29T03:32:06.833Z,102219.94
2022-10-29T03:35:14.962Z,102224.69
2022-10-29T03:38:20.178Z,102226.94
2022-10-29T03:41:25.608Z,102232.53
2022-10-29T03:44:32.420Z,102228.41
2022-10-29T03:47:38.186Z,102237.03
2022-10-29T03:50:43.592Z,102234.16
2022-10-29T03:53:49.254Z,102235.81
2022-10-29T03:56:54.663Z,102230.88
2022-10-29T04:00:01.408Z,102233.75
2022-10-29T04:03:06.788Z,102231.50
2022-10-29T04:06:14.920Z,102227.78
2022-10-29T04:09:20.557Z,102225.09
2022-10-29T04:12:26.174Z,102230.88
2022-10-29T04:15:32.564Z,102230.47
2022-10-29T04:18:37.690Z,102224.88
2022-10-29T04:28:42.990Z,102228.22
2022-10-29T04:31:49.050Z,102222.25
2022-10-29T04:34:54.309Z,102229.25
2022-10-29T04:37:59.749Z,102233.13
2022-10-29T04:41:05.730Z,102236.44
2022-10-29T04:44:11.106Z,102237.03
2022-10-29T04:47:16.315Z,102223.88
2022-10-29T04:50:21.789Z,102231.06
2022-10-29T04:53:27.944Z,102227.78
2022-10-29T04:56:33.445Z,102223.47
2022-10-29T04:59:38.934Z,102230.06
2022-10-29T05:02:49.625Z,102235.41
2022-10-29T05:05:54.996Z,102226.56
2022-10-29T05:09:00.319Z,102229.03
2022-10-29T05:12:07.275Z,102229.25
2022-10-29T05:15:12.631Z,102219.56
2022-10-29T05:18:18.540Z,102215.88
2022-10-29T05:21:23.900Z,102215.47
2022-10-29T05:24:29.673Z,102221.63
2022-10-29T05:27:35.049Z,102222.66
2022-10-29T05:30:42.146Z,102228.00
2022-10-29T05:33:49.923Z,102231.91
2022-10-29T05:36:58.539Z,102230.88
2022-10-29T05:40:03.932Z,102231.72
2022-10-29T05:43:09.087Z,102230.69
2022-10-29T05:46:14.781Z,102228.81
2022-10-29T05:49:20.324Z,102228.84
2022-10-29T05:52:25.972Z,102235.00
2022-10-29T05:55:34.197Z,102232.53
2022-10-29T05:58:40.147Z,102237.25
2022-10-29T06:01:45.921Z,102230.06
2022-10-29T06:04:51.850Z,102228.84
2022-10-29T06:07:59.179Z,102235.19
2022-10-29T06:11:05.633Z,102232.94
2022-10-29T06:14:10.872Z,102233.78
2022-10-29T06:17:16.210Z,102241.78
2022-10-29T06:20:22.260Z,102234.81
2022-10-29T06:23:28.862Z,102228.00
2022-10-29T06:26:34.298Z,102237.25
2022-10-29T06:29:40.021Z,102223.50
2022-10-29T06:32:47.690Z,102228.81
2022-10-29T06:35:53.563Z,102233.56
2022-10-29T06:38:59.372Z,102237.88
2022-10-29T06:42:13.723Z,102239.53
2022-10-29T06:45:19.093Z,102241.78
2022-10-29T06:48:24.372Z,102247.53
2022-10-29T06:51:29.924Z,102250.19
2022-10-29T06:54:36.020Z,102248.34
2022-10-29T06:57:42.444Z,102248.16
2022-10-29T07:00:49.364Z,102255.34
2022-10-29T07:03:55.137Z,102244.00
2022-10-29T07:07:00.215Z,102248.31
2022-10-29T07:10:06.148Z,102256.28
2022-10-29T07:13:11.653Z,102259.81
2022-10-29T07:16:17.024Z,102266.16
2022-10-29T07:19:22.921Z,102261.41
2022-10-29T07:22:33.943Z,102254.97
2022-10-29T07:25:41.374Z,102260.19
2022-10-29T07:28:46.527Z,102269.44
2022-10-29T07:31:51.897Z,102271.25
2022-10-29T07:34:57.601Z,102273.84
2022-10-29T07:38:10.454Z,102275.66
2022-10-29T07:41:17.100Z,102276.84
2022-10-29T07:44:23.069Z,102281.75
2022-10-29T07:47:28.746Z,102281.53
2022-10-29T07:50:34.897Z,102284.63
2022-10-29T07:53:40.896Z,102291.84
2022-10-29T07:56:47.837Z,102287.16
2022-10-29T07:59:53.992Z,102286.06
2022-10-29T08:02:59.866Z,102275.09
2022-10-29T08:06:05.783Z,102280.66
2022-10-29T08:09:12.614Z,102274.81
2022-10-29T08:12:18.225Z,102279.81
2022-10-29T08:15:24.963Z,102285.63
2022-10-29T08:18:30.565Z,102288.31
2022-10-29T08:21:36.189Z,102280.53
2022-10-29T08:24:41.721Z,102285.97
2022-10-29T08:28:02.451Z,102298.28
2022-10-29T08:31:08.091Z,102290.25
2022-10-29T08:34:13.261Z,102287.16
2022-10-29T08:37:18.996Z,102286.69
2022-10-29T08:40:59.370Z,102285.28
2022-10-29T08:44:27.578Z,102280.28
2022-10-29T08:47:59.111Z,102284.25
2022-10-29T08:51:07.457Z,102279.34
2022-10-29T08:54:32.272Z,102286.03
2022-10-29T08:57:43.806Z,102282.44
2022-10-29T09:00:53.359Z,102278.78
2022-10-29T09:03:59.492Z,102279.72
2022-10-29T09:07:25.957Z,102284.63
2022-10-29T09:10:41.724Z,102284.41
2022-10-29T09:14:13.451Z,102283.78
2022-10-29T09:17:31.311Z,102283.28
2022-10-29T09:20:48.562Z,102280.94
2022-10-29T09:24:20.597Z,102278.69
2022-10-29T09:28:00.584Z,102283.59
2022-10-29T09:31:28.877Z,102277.19
2022-10-29T09:34:53.279Z,102278.59
2022-10-29T09:38:09.185Z,102277.63
2022-10-29T09:41:15.841Z,102275.66
2022-10-29T09:44:24.155Z,102277.91
2022-10-29T09:47:58.226Z,102280.16
2022-10-29T09:51:06.779Z,102272.75
2022-10-29T09:54:13.524Z,102269.31
2022-10-29T09:57:25.618Z,102273.66
2022-10-29T10:00:33.940Z,102274.84
2022-10-29T10:03:46.142Z,102264.53
2022-10-29T10:07:11.780Z,102265.06
2022-10-29T10:10:24.135Z,102257.88
2022-10-29T10:13:32.936Z,102251.47
2022-10-29T10:16:38.573Z,102249.66
2022-10-29T10:19:49.298Z,102246.59
2022-10-29T10:22:54.872Z,102245.50
2022-10-29T10:26:04.016Z,102247.69
2022-10-29T10:29:25.583Z,102241.81
2022-10-29T10:32:32.428Z,102241.38
2022-10-29T10:35:39.101Z,102233.31
2022-10-29T10:38:53.418Z,102229.94
2022-10-29T10:42:02.848Z,102225.09
2022-10-29T10:45:36.288Z,102223.41
2022-10-29T10:48:42.577Z,102213.44
2022-10-29T10:51:56.508Z,102201.94
2022-10-29T10:55:26.402Z,102208.50
2022-10-29T10:58:36.013Z,102195.50
2022-10-29T11:01:49.030Z,102190.16
2022-10-29T11:05:12.450Z,102185.38
2022-10-29T11:08:32.823Z,102184.31
2022-10-29T11:11:42.681Z,102183.28
2022-10-29T11:15:16.255Z,102185.25
2022-10-29T11:18:32.063Z,102181.75
2022-10-29T11:21:48.814Z,102188.59
2022-10-29T11:25:22.377Z,102183.16
2022-10-29T11:28:39.046Z,102176.13
2022-10-29T11:31:57.895Z,102175.59
2022-10-29T11:35:10.168Z,102177.25
2022-10-29T11:38:25.827Z,102166.94
2022-10-29T11:41:40.263Z,102165.84
2022-10-29T11:44:45.700Z,102162.03
2022-10-29T11:48:07.099Z,102152.00
2022-10-29T11:51:29.178Z,102147.09
2022-10-29T11:54:57.556Z,102146.59
2022-10-29T11:58:18.944Z,102144.41
2022-10-29T12:01:50.080Z,102126.75
2022-10-29T12:05:02.084Z,102133.25
2022-10-29T12:08:13.453Z,102130.50
2022-10-29T12:11:25.691Z,102128.03
2022-10-29T12:14:47.023Z,102122.09
2022-10-29T12:18:15.827Z,102115.00
2022-10-29T12:21:26.735Z,102116.06
2022-10-29T12:24:54.035Z,102111.66
2022-10-29T12:28:19.882Z,102112.44
2022-10-29T12:31:38.375Z,102108.25
2022-10-29T12:34:53.584Z,102097.09
2022-10-29T12:38:20.050Z,102095.34
2022-10-29T12:41:43.917Z,102098.13
2022-10-29T12:45:13.334Z,102092.19
2022-10-29T12:48:33.625Z,102092.97
2022-10-29T12:55:12.946Z,102075.28
2022-10-29T12:58:43.964Z,102067.00
2022-10-29T13:02:10.642Z,102065.25
2022-10-29T13:05:19.187Z,102064.16
2022-10-29T13:08:34.519Z,102060.66
2022-10-29T13:11:50.657Z,102054.06
2022-10-29T13:15:05.364Z,102062.78
2022-10-29T13:18:41.652Z,102049.72
2022-10-29T13:22:03.447Z,102045.25
2022-10-29T13:25:43.406Z,102048.38
2022-10-29T13:28:51.603Z,102049.59
2022-10-29T13:32:04.742Z,102039.75
2022-10-29T13:35:19.431Z,102044.88
2022-10-29T13:39:04.838Z,102032.13
2022-10-29T13:42:13.364Z,102026.75
2022-10-29T13:45:20.450Z,102024.13
2022-10-29T13:48:31.831Z,102029.25
2022-10-29T13:51:44.615Z,102032.66
2022-10-29T13:54:54.498Z,102021.06
2022-10-29T13:58:16.110Z,102018.69
2022-10-29T14:01:23.137Z,102021.81
2022-10-29T14:04:38.108Z,102019.75
2022-10-29T14:08:06.997Z,102012.69
2022-10-29T14:11:25.576Z,102013.00
2022-10-29T14:14:37.278Z,102013.81
2022-10-29T14:17:42.462Z,102004.66
2022-10-29T14:20:55.955Z,102012.81
2022-10-29T14:24:04.567Z,102009.03
2022-10-29T14:27:15.450Z,102016.09
2022-10-29T14:30:20.745Z,102008.91
2022-10-29T14:33:32.222Z,102015.13
2022-10-29T14:36:51.195Z,102017.28
2022-10-29T14:40:00.355Z,102011.56
2022-10-29T14:43:06.076Z,102011.84
2022-10-29T14:46:17.173Z,102006.13
2022-10-29T14:49:25.445Z,102016.00
2022-10-29T14:52:38.837Z,102016.75
2022-10-29T14:55:48.376Z,102018.22
2022-10-29T14:58:53.628Z,102021.88
2022-10-29T15:02:17.305Z,102016.91
2022-10-29T15:05:28.808Z,102024.94
2022-10-29T15:08:39.771Z,102022.53
2022-10-29T15:12:03.985Z,102028.28
2022-10-29T15:15:25.375Z,102030.72
2022-10-29T15:18:32.012Z,102020.72
2022-10-29T15:21:40.346Z,102019.38
2022-10-29T15:27:53.560Z,102019.50
2022-10-29T15:31:04.051Z,102019.28
2022-10-29T15:34:14.337Z,102022.31
2022-10-29T15:37:19.393Z,102021.22
2022-10-29T15:40:26.398Z,102022.34
2022-10-29T15:43:32.550Z,102020.69
2022-10-29T15:46:50.274Z,102018.53
2022-10-29T15:49:55.891Z,102017.47
2022-10-29T15:53:06.055Z,102012.84
2022-10-29T15:56:15.117Z,102016.13
2022-10-29T15:59:25.170Z,102021.00
2022-10-29T16:02:30.900Z,102025.00
2022-10-29T16:05:38.008Z,102016.28
2022-10-29T16:08:50.415Z,102014.91
2022-10-29T16:11:55.690Z,102022.50
2022-10-29T16:15:01.160Z,102012.97
2022-10-29T16:18:06.465Z,102021.88
2022-10-29T16:21:24.428Z,102018.31
2022-10-29T16:24:29.972Z,102020.97
2022-10-29T16:27:35.082Z,102019.31
2022-10-29T16:33:53.441Z,102023.53
2022-10-29T16:36:58.785Z,102020.81
2022-10-29T16:40:04.634Z,102025.91
2022-10-29T16:43:10.280Z,102022.34
2022-10-29T16:46:16.367Z,102022.06
2022-10-29T16:49:22.095Z,102024.09
2022-10-29T16:52:29.841Z,102025.66
2022-10-29T16:55:38.020Z,102015.03
2022-10-29T16:58:43.805Z,102029.56
2022-10-29T17:01:49.121Z,102033.31
2022-10-29T17:04:54.719Z,102035.13
2022-10-29T17:08:00.071Z,102032.19
2022-10-29T17:11:10.351Z,102034.56
2022-10-29T17:14:15.821Z,102040.50
2022-10-29T17:17:21.596Z,102032.59
2022-10-29T17:20:27.038Z,102034.06
2022-10-29T17:23:33.402Z,102036.41
2022-10-29T17:26:38.983Z,102044.22
2022-10-29T17:29:44.463Z,102036.88
2022-10-29T17:32:51.500Z,102036.56
2022-10-29T17:36:10.849Z,102040.00
2022-10-29T17:39:16.261Z,102044.06
2022-10-29T17:42:21.720Z,102047.81
2022-10-29T17:45:27.193Z,102051.09
2022-10-29T17:48:32.417Z,102038.16
2022-10-29T17:51:37.874Z,102049.63
2022-10-29T17:54:43.679Z,102046.31
2022-10-29T17:57:48.817Z,102051.88
2022-10-29T18:00:54.174Z,102055.91
2022-10-29T18:04:04.705Z,102056.97
2022-10-29T18:07:10.511Z,102057.69
2022-10-29T18:10:17.545Z,102052.63
2022-10-29T18:13:23.510Z,102048.06
2022-10-29T18:16:30.433Z,102055.28
2022-10-29T18:19:35.754Z,102054.81
2022-10-29T18:22:41.160Z,102049.16
2022-10-29T18:26:02.790Z,102051.75
2022-10-29T18:29:11.912Z,102051.75
2022-10-29T18:32:17.434Z,102053.72
2022-10-29T18:35:23.066Z,102049.06
2022-10-29T18:38:30.803Z,102048.00
2022-10-29T18:41:36.785Z,102057.56
2022-10-29T18:44:42.128Z,102058.72
2022-10-29T18:47:47.557Z,102058.16
2022-10-29T18:50:53.983Z,102052.34
2022-10-29T18:54:00.143Z,102046.06
2022-10-29T18:57:06.459Z,102045.78
2022-10-29T19:00:12.763Z,102046.84
2022-10-29T19:03:18.168Z,102043.31
2022-10-29T19:06:26.792Z,102049.91
2022-10-29T19:09:32.542Z,102048.88
2022-10-29T19:12:37.971Z,102050.03
2022-10-29T19:15:43.799Z,102048.72
2022-10-29T19:18:58.366Z,102047.81
2022-10-29T19:22:03.950Z,102056.16
2022-10-29T19:25:09.183Z,102056.38
2022-10-29T19:28:14.682Z,102050.41
2022-10-29T19:31:23.018Z,102054.16
2022-10-29T19:34:28.476Z,102042.34
2022-10-29T19:37:34.126Z,102041.91
2022-10-29T19:40:39.304Z,102043.59
2022-10-29T19:43:45.024Z,102041.97
2022-10-29T19:46:51.149Z,102043.59
2022-10-29T19:49:56.802Z,102040.22
2022-10-29T19:53:02.903Z,102030.69
2022-10-29T19:56:11.612Z,102041.63
2022-10-29T19:59:16.864Z,102050.28
2022-10-29T20:02:22.520Z,102042.84
2022-10-29T20:05:27.952Z,102042.75
2022-10-29T20:08:34.281Z,102044.16
2022-10-29T20:11:40.264Z,102037.59
2022-10-29T20:14:46.283Z,102035.38
2022-10-29T20:17:52.429Z,102036.56
2022-10-29T20:20:58.325Z,102036.09
2022-10-29T20:24:04.698Z,102036.13
2022-10-29T20:27:10.626Z,102040.56
2022-10-29T20:30:16.719Z,102052.97
2022-10-29T20:33:22.281Z,102052.31
2022-10-29T20:36:30.948Z,102046.91
2022-10-29T20:39:37.193Z,102048.31
2022-10-29T20:42:43.324Z,102043.41
2022-10-29T20:45:49.328Z,102051.38
2022-10-29T20:48:54.738Z,102049.28
2022-10-29T20:52:00.276Z,102047.06
2022-10-29T20:55:07.424Z,102054.75
2022-10-29T20:58:13.545Z,102056.72
2022-10-29T21:01:21.510Z,102047.63
2022-10-29T21:04:27.872Z,102047.50
2022-10-29T21:07:33.857Z,102045.53
2022-10-29T21:10:39.572Z,102051.31
2022-10-29T21:13:46.538Z,102049.38
2022-10-29T21:16:52.035Z,102045.56
2022-10-29T21:19:57.920Z,102053.28
2022-10-29T21:23:03.983Z,102051.19
2022-10-29T21:26:13.614Z,102057.69
2022-10-29T21:29:19.714Z,102054.88
2022-10-29T21:32:26.014Z,102058.19
2022-10-29T21:35:32.140Z,102056.97
2022-10-29T21:38:38.267Z,102050.28
2022-10-29T21:41:44.157Z,102054.53
2022-10-29T21:44:49.995Z,102047.59
2022-10-29T21:47:55.816Z,102048.22
2022-10-29T21:51:12.904Z,102051.34
2022-10-29T21:54:20.066Z,102047.63
2022-10-29T21:57:28.116Z,102054.06
2022-10-29T22:00:34.168Z,102055.56
2022-10-29T22:03:42.102Z,102050.31
2022-10-29T22:06:47.822Z,102049.47
2022-10-29T22:09:54.244Z,102052.13
2022-10-29T22:13:00.328Z,102046.06
2022-10-29T22:16:07.593Z,102052.78
2022-10-29T22:19:13.554Z,102038.78
2022-10-29T22:22:19.563Z,102038.56
2022-10-29T22:25:25.325Z,102036.41
2022-10-29T22:28:30.768Z,102031.84
2022-10-29T22:31:36.725Z,102035.97
2022-10-29T22:34:42.331Z,102032.31
2022-10-29T22:37:48.317Z,102029.78
2022-10-29T22:40:54.174Z,102030.31
2022-10-29T22:44:00.329Z,102025.03
2022-10-29T22:47:06.107Z,102021.91
2022-10-29T22:50:12.108Z,102008.19
2022-10-29T22:53:17.759Z,102014.34
2022-10-29T22:56:26.251Z,102015.75
2022-10-29T22:59:32.205Z,102012.22
2022-10-29T23:02:37.788Z,102012.34
2022-10-29T23:05:43.947Z,102013.69
2022-10-29T23:08:53.044Z,102017.03
2022-10-29T23:11:58.789Z,102017.50
2022-10-29T23:15:06.091Z,102019.91
2022-10-29T23:18:12.209Z,102012.91
2022-10-29T23:21:18.457Z,102018.06
2022-10-29T23:24:24.447Z,102019.75
2022-10-29T23:27:30.271Z,102019.38
2022-10-29T23:30:35.994Z,102013.56
2022-10-29T23:33:47.597Z,102017.78
2022-10-29T23:40:04.403Z,102003.91
2022-10-29T23:43:10.306Z,102003.31
2022-10-29T23:46:16.399Z,101999.00
2022-10-29T23:49:22.016Z,101996.81
2022-10-29T23:52:27.943Z,101998.00
2022-10-29T23:55:35.556Z,101999.56
2022-10-29T23:58:41.445Z,101998.91
